Time,TemperatureF,DewpointF,PressureIn,WindDirection,WindDirectionDegrees,WindSpeedMPH,WindSpeedGustMPH,Humidity,HourlyPrecipIn,Conditions,Clouds,dailyrainin,SoftwareType,DateUTC
2013-06-29 00:01:00,73.0,54.0,29.83,NW,319,5.0,11.0,52,0.00,,,0.00,,2013-06-29 05:01:00,
2013-06-29 00:10:00,73.0,54.0,29.83,NW,319,5.0,11.0,52,0.00,,,0.00,,2013-06-29 05:10:00,
2013-06-29 00:21:00,73.0,54.0,29.83,NW,319,5.0,11.0,52,0.00,,,0.00,,2013-06-29 05:21:00,
2013-06-29 00:31:00,73.0,54.0,29.83,NW,319,5.0,11.0,52,0.00,,,0.00,,2013-06-29 05:31:00,
2013-06-29 00:41:00,70.0,55.0,29.82,WNW,298,0.0,0.0,60,0.00,,,0.00,,2013-06-29 05:41:00,
2013-06-29 00:52:00,70.0,55.0,29.82,WNW,298,0.0,0.0,60,0.00,,,0.00,,2013-06-29 05:52:00,
2013-06-29 01:01:00,69.0,55.0,29.82,WNW,303,0.0,0.0,61,0.00,,,0.00,,2013-06-29 06:01:00,
2013-06-29 01:12:00,68.0,55.0,29.82,WNW,291,0.0,4.0,63,0.00,,,0.00,,2013-06-29 06:12:00,
2013-06-29 01:22:00,68.0,55.0,29.82,WNW,291,0.0,4.0,63,0.00,,,0.00,,2013-06-29 06:22:00,
2013-06-29 01:33:00,68.0,55.0,29.82,WNW,301,2.0,5.0,64,0.00,,,0.00,,2013-06-29 06:33:00,
2013-06-29 01:43:00,68.0,55.0,29.81,West,271,2.0,6.0,64,0.00,,,0.00,,2013-06-29 06:43:00,
2013-06-29 01:53:00,68.0,55.0,29.81,West,271,2.0,6.0,64,0.00,,,0.00,,2013-06-29 06:53:00,
2013-06-29 02:02:00,68.0,55.0,29.81,WNW,295,3.0,7.0,64,0.00,,,0.00,,2013-06-29 07:02:00,
2013-06-29 02:12:00,68.0,55.0,29.81,West,265,4.0,7.0,64,0.00,,,0.00,,2013-06-29 07:12:00,
2013-06-29 02:22:00,68.0,55.0,29.81,West,265,4.0,7.0,64,0.00,,,0.00,,2013-06-29 07:22:00,
2013-06-29 02:33:00,68.0,55.0,29.81,West,281,4.0,9.0,64,0.00,,,0.00,,2013-06-29 07:33:00,
2013-06-29 02:43:00,68.0,56.0,29.81,WSW,255,3.0,7.0,65,0.00,,,0.00,,2013-06-29 07:43:00,
2013-06-29 02:53:00,68.0,56.0,29.81,WSW,255,3.0,7.0,65,0.00,,,0.00,,2013-06-29 07:53:00,
2013-06-29 03:01:00,67.0,55.0,29.81,NW,317,4.0,8.0,66,0.00,,,0.00,,2013-06-29 08:01:00,
2013-06-29 03:11:00,67.0,56.0,29.80,West,280,4.0,9.0,67,0.00,,,0.00,,2013-06-29 08:11:00,
2013-06-29 03:22:00,67.0,56.0,29.80,West,280,4.0,9.0,67,0.00,,,0.00,,2013-06-29 08:22:00,
2013-06-29 03:33:00,66.0,55.0,29.80,WNW,295,3.0,9.0,68,0.00,,,0.00,,2013-06-29 08:33:00,
2013-06-29 03:43:00,66.0,55.0,29.80,WNW,292,5.0,10.0,68,0.00,,,0.00,,2013-06-29 08:43:00,
2013-06-29 03:52:00,66.0,55.0,29.80,WNW,292,5.0,10.0,68,0.00,,,0.00,,2013-06-29 08:52:00,
2013-06-29 04:02:00,67.0,56.0,29.81,WNW,296,3.0,11.0,68,0.00,,,0.00,,2013-06-29 09:02:00,
2013-06-29 04:12:00,66.0,55.0,29.81,WNW,290,3.0,8.0,68,0.00,,,0.00,,2013-06-29 09:12:00,
2013-06-29 04:22:00,66.0,55.0,29.81,WNW,290,3.0,8.0,68,0.00,,,0.00,,2013-06-29 09:22:00,
2013-06-29 04:33:00,66.0,55.0,29.81,WNW,301,6.0,10.0,68,0.00,,,0.00,,2013-06-29 09:33:00,
2013-06-29 04:42:00,66.0,56.0,29.81,West,279,4.0,9.0,69,0.00,,,0.00,,2013-06-29 09:42:00,
2013-06-29 04:53:00,66.0,56.0,29.81,West,279,4.0,9.0,69,0.00,,,0.00,,2013-06-29 09:53:00,
2013-06-29 05:01:00,65.0,55.0,29.81,West,279,5.0,12.0,70,0.00,,,0.00,,2013-06-29 10:01:00,
2013-06-29 05:11:00,65.0,55.0,29.81,WNW,298,5.0,11.0,71,0.00,,,0.00,,2013-06-29 10:11:00,
2013-06-29 05:22:00,65.0,55.0,29.81,WNW,298,5.0,11.0,71,0.00,,,0.00,,2013-06-29 10:22:00,
2013-06-29 05:33:00,65.0,56.0,29.82,WNW,298,5.0,8.0,72,0.00,,,0.00,,2013-06-29 10:33:00,
2013-06-29 05:43:00,64.0,55.0,29.82,WNW,298,2.0,10.0,72,0.00,,,0.00,,2013-06-29 10:43:00,
2013-06-29 05:52:00,64.0,55.0,29.82,WNW,298,2.0,10.0,72,0.00,,,0.00,,2013-06-29 10:52:00,
2013-06-29 06:01:00,64.0,55.0,29.82,WNW,294,3.0,9.0,73,0.00,,,0.00,,2013-06-29 11:01:00,
2013-06-29 06:11:00,64.0,55.0,29.82,WNW,286,2.0,10.0,73,0.00,,,0.00,,2013-06-29 11:11:00,
2013-06-29 06:23:00,64.0,55.0,29.82,WNW,286,2.0,10.0,73,0.00,,,0.00,,2013-06-29 11:23:00,
2013-06-29 06:33:00,64.0,56.0,29.83,WNW,296,3.0,8.0,74,0.00,,,0.00,,2013-06-29 11:33:00,
2013-06-29 06:43:00,64.0,56.0,29.83,WNW,292,2.0,7.0,75,0.00,,,0.00,,2013-06-29 11:43:00,
2013-06-29 06:53:00,64.0,56.0,29.83,WNW,292,2.0,7.0,75,0.00,,,0.00,,2013-06-29 11:53:00,
2013-06-29 07:02:00,64.0,56.0,29.83,WNW,300,4.0,9.0,75,0.00,,,0.00,,2013-06-29 12:02:00,
2013-06-29 07:12:00,64.0,56.0,29.83,WNW,298,2.0,9.0,76,0.00,,,0.00,,2013-06-29 12:12:00,
2013-06-29 07:22:00,64.0,56.0,29.83,WNW,298,2.0,9.0,76,0.00,,,0.00,,2013-06-29 12:22:00,
2013-06-29 07:34:00,64.0,56.0,29.83,WNW,302,4.0,10.0,76,0.00,,,0.00,,2013-06-29 12:34:00,
2013-06-29 07:43:00,65.0,57.0,29.83,WNW,286,3.0,10.0,75,0.00,,,0.00,,2013-06-29 12:43:00,
2013-06-29 07:53:00,65.0,57.0,29.83,WNW,286,3.0,10.0,75,0.00,,,0.00,,2013-06-29 12:53:00,
2013-06-29 08:02:00,66.0,57.0,29.83,WNW,284,7.0,13.0,74,0.00,,,0.00,,2013-06-29 13:02:00,
2013-06-29 08:11:00,67.0,58.0,29.83,NNW,331,6.0,12.0,73,0.00,,,0.00,,2013-06-29 13:11:00,
2013-06-29 08:23:00,67.0,58.0,29.83,NNW,331,6.0,12.0,73,0.00,,,0.00,,2013-06-29 13:23:00,
2013-06-29 08:34:00,68.0,59.0,29.83,WNW,286,5.0,12.0,73,0.00,,,0.00,,2013-06-29 13:34:00,
2013-06-29 08:43:00,68.0,58.0,29.84,NW,315,7.0,14.0,71,0.00,,,0.00,,2013-06-29 13:43:00,
2013-06-29 08:53:00,68.0,58.0,29.84,NW,315,7.0,14.0,71,0.00,,,0.00,,2013-06-29 13:53:00,
2013-06-29 09:02:00,69.0,59.0,29.83,WNW,289,10.0,17.0,70,0.00,,,0.00,,2013-06-29 14:02:00,
2013-06-29 09:12:00,69.0,59.0,29.84,West,267,10.0,18.0,71,0.00,,,0.00,,2013-06-29 14:12:00,
2013-06-29 09:23:00,69.0,59.0,29.84,West,267,10.0,18.0,71,0.00,,,0.00,,2013-06-29 14:23:00,
2013-06-29 09:34:00,69.0,60.0,29.84,WNW,300,8.0,21.0,72,0.00,,,0.00,,2013-06-29 14:34:00,
2013-06-29 09:44:00,70.0,60.0,29.84,WNW,300,7.0,24.0,70,0.00,,,0.00,,2013-06-29 14:44:00,
2013-06-29 09:53:00,70.0,60.0,29.84,WNW,300,7.0,24.0,70,0.00,,,0.00,,2013-06-29 14:53:00,
2013-06-29 10:01:00,71.0,59.0,29.83,West,271,12.0,22.0,66,0.00,,,0.00,,2013-06-29 15:01:00,
2013-06-29 10:11:00,71.0,58.0,29.83,WNW,288,12.0,29.0,63,0.00,,,0.00,,2013-06-29 15:11:00,
2013-06-29 10:22:00,71.0,58.0,29.83,WNW,288,12.0,29.0,63,0.00,,,0.00,,2013-06-29 15:22:00,
2013-06-29 10:33:00,72.0,59.0,29.83,West,280,9.0,25.0,63,0.00,,,0.00,,2013-06-29 15:33:00,
2013-06-29 10:42:00,73.0,58.0,29.83,West,273,13.0,26.0,59,0.00,,,0.00,,2013-06-29 15:42:00,
2013-06-29 10:53:00,73.0,58.0,29.83,West,273,13.0,26.0,59,0.00,,,0.00,,2013-06-29 15:53:00,
2013-06-29 11:01:00,73.0,59.0,29.83,NW,316,10.0,25.0,62,0.00,,,0.00,,2013-06-29 16:01:00,
2013-06-29 11:12:00,73.0,58.0,29.83,NW,325,13.0,24.0,60,0.00,,,0.00,,2013-06-29 16:12:00,
2013-06-29 11:22:00,73.0,58.0,29.83,NW,325,13.0,24.0,60,0.00,,,0.00,,2013-06-29 16:22:00,
2013-06-29 11:33:00,73.0,59.0,29.83,NNW,346,8.0,21.0,62,0.00,,,0.00,,2013-06-29 16:33:00,
2013-06-29 11:43:00,73.0,58.0,29.83,NNW,333,12.0,27.0,59,0.00,,,0.00,,2013-06-29 16:43:00,
2013-06-29 11:53:00,73.0,58.0,29.83,NNW,333,12.0,27.0,59,0.00,,,0.00,,2013-06-29 16:53:00,
2013-06-29 12:01:00,74.0,58.0,29.83,NNW,343,11.0,27.0,57,0.00,,,0.00,,2013-06-29 17:01:00,
2013-06-29 12:12:00,74.0,59.0,29.83,NW,305,8.0,22.0,59,0.00,,,0.00,,2013-06-29 17:12:00,
2013-06-29 12:22:00,74.0,59.0,29.83,NW,305,8.0,22.0,59,0.00,,,0.00,,2013-06-29 17:22:00,
2013-06-29 12:33:00,74.0,58.0,29.83,NW,321,10.0,20.0,57,0.00,,,0.00,,2013-06-29 17:33:00,
2013-06-29 12:42:00,74.0,57.0,29.83,WNW,292,13.0,25.0,55,0.00,,,0.00,,2013-06-29 17:42:00,
2013-06-29 12:52:00,74.0,57.0,29.83,WNW,292,13.0,25.0,55,0.00,,,0.00,,2013-06-29 17:52:00,
2013-06-29 13:01:00,74.0,57.0,29.83,NW,324,11.0,26.0,56,0.00,,,0.00,,2013-06-29 18:01:00,
2013-06-29 13:12:00,75.0,59.0,29.83,WNW,293,7.0,20.0,58,0.00,,,0.00,,2013-06-29 18:12:00,
2013-06-29 13:22:00,75.0,59.0,29.83,WNW,293,7.0,20.0,58,0.00,,,0.00,,2013-06-29 18:22:00,
2013-06-29 13:34:00,74.0,58.0,29.83,NNW,338,8.0,19.0,58,0.00,,,0.00,,2013-06-29 18:34:00,
2013-06-29 13:43:00,75.0,58.0,29.82,North,355,10.0,19.0,56,0.00,,,0.00,,2013-06-29 18:43:00,
2013-06-29 13:52:00,75.0,58.0,29.82,North,355,10.0,19.0,56,0.00,,,0.00,,2013-06-29 18:52:00,
2013-06-29 14:01:00,76.0,60.0,29.82,NW,320,7.0,23.0,57,0.00,,,0.00,,2013-06-29 19:01:00,
2013-06-29 14:12:00,76.0,58.0,29.82,WNW,294,12.0,23.0,54,0.00,,,0.00,,2013-06-29 19:12:00,
2013-06-29 14:22:00,76.0,58.0,29.82,WNW,294,12.0,23.0,54,0.00,,,0.00,,2013-06-29 19:22:00,
2013-06-29 14:34:00,75.0,58.0,29.82,East,82,8.0,21.0,55,0.00,,,0.00,,2013-06-29 19:34:00,
2013-06-29 14:43:00,76.0,58.0,29.82,North,355,9.0,25.0,54,0.00,,,0.00,,2013-06-29 19:43:00,
2013-06-29 14:54:00,76.0,58.0,29.82,North,355,9.0,25.0,54,0.00,,,0.00,,2013-06-29 19:54:00,
2013-06-29 15:02:00,76.0,59.0,29.82,North,5,8.0,22.0,56,0.00,,,0.00,,2013-06-29 20:02:00,
2013-06-29 15:11:00,76.0,58.0,29.82,NW,323,7.0,22.0,54,0.00,,,0.00,,2013-06-29 20:11:00,
2013-06-29 15:23:00,76.0,58.0,29.82,NW,323,7.0,22.0,54,0.00,,,0.00,,2013-06-29 20:23:00,
2013-06-29 15:33:00,75.0,58.0,29.82,North,355,12.0,24.0,55,0.00,,,0.00,,2013-06-29 20:33:00,
2013-06-29 15:43:00,76.0,58.0,29.82,NW,323,13.0,22.0,53,0.00,,,0.00,,2013-06-29 20:43:00,
2013-06-29 15:52:00,76.0,58.0,29.82,NW,323,13.0,22.0,53,0.00,,,0.00,,2013-06-29 20:52:00,
2013-06-29 16:02:00,76.0,58.0,29.82,NNW,340,7.0,22.0,53,0.00,,,0.00,,2013-06-29 21:02:00,
2013-06-29 16:11:00,76.0,58.0,29.82,NNW,340,7.0,22.0,53,0.00,,,0.00,,2013-06-29 21:11:00,
2013-06-29 16:22:00,76.0,58.0,29.82,NNW,340,7.0,22.0,53,0.00,,,0.00,,2013-06-29 21:22:00,
2013-06-29 16:32:00,76.0,59.0,29.82,NNW,329,12.0,24.0,55,0.00,,,0.00,,2013-06-29 21:32:00,
2013-06-29 16:42:00,76.0,60.0,29.82,NNW,340,8.0,27.0,57,0.00,,,0.00,,2013-06-29 21:42:00,
2013-06-29 16:52:00,76.0,60.0,29.82,NNW,340,8.0,27.0,57,0.00,,,0.00,,2013-06-29 21:52:00,
2013-06-29 17:01:00,76.0,58.0,29.83,NNW,338,8.0,23.0,53,0.00,,,0.00,,2013-06-29 22:01:00,
2013-06-29 17:11:00,76.0,58.0,29.82,North,355,8.0,25.0,53,0.00,,,0.00,,2013-06-29 22:11:00,
2013-06-29 17:21:00,76.0,58.0,29.82,North,355,8.0,25.0,53,0.00,,,0.00,,2013-06-29 22:21:00,
2013-06-29 17:33:00,75.0,57.0,29.83,NNW,345,6.0,19.0,54,0.00,,,0.00,,2013-06-29 22:33:00,
2013-06-29 17:43:00,76.0,59.0,29.83,NNW,344,6.0,12.0,55,0.00,,,0.00,,2013-06-29 22:43:00,
2013-06-29 17:53:00,76.0,59.0,29.83,NNW,344,6.0,12.0,55,0.00,,,0.00,,2013-06-29 22:53:00,
2013-06-29 18:02:00,73.0,59.0,29.83,NE,37,3.0,16.0,62,0.00,,,0.00,,2013-06-29 23:02:00,
2013-06-29 18:12:00,73.0,59.0,29.83,NW,324,4.0,10.0,61,0.00,,,0.00,,2013-06-29 23:12:00,
2013-06-29 18:23:00,73.0,59.0,29.83,NW,324,4.0,10.0,61,0.00,,,0.00,,2013-06-29 23:23:00,
2013-06-29 18:34:00,75.0,59.0,29.83,North,9,5.0,12.0,57,0.00,,,0.00,,2013-06-29 23:34:00,
2013-06-29 18:43:00,74.0,58.0,29.83,NNE,24,0.0,10.0,58,0.00,,,0.00,,2013-06-29 23:43:00,
2013-06-29 18:52:00,74.0,58.0,29.83,NNE,24,0.0,10.0,58,0.00,,,0.00,,2013-06-29 23:52:00,
2013-06-29 19:02:00,75.0,58.0,29.83,North,9,8.0,15.0,55,0.00,,,0.00,,2013-06-30 00:02:00,
2013-06-29 19:11:00,75.0,56.0,29.83,North,355,6.0,13.0,52,0.00,,,0.00,,2013-06-30 00:11:00,
2013-06-29 19:22:00,75.0,56.0,29.83,North,355,6.0,13.0,52,0.00,,,0.00,,2013-06-30 00:22:00,
2013-06-29 19:33:00,75.0,55.0,29.83,NW,304,6.0,17.0,50,0.00,,,0.00,,2013-06-30 00:33:00,
2013-06-29 19:43:00,75.0,55.0,29.83,NNE,15,3.0,14.0,50,0.00,,,0.00,,2013-06-30 00:43:00,
2013-06-29 19:52:00,75.0,55.0,29.83,NNE,15,3.0,14.0,50,0.00,,,0.00,,2013-06-30 00:52:00,
2013-06-29 20:01:00,74.0,55.0,29.83,NNW,348,3.0,7.0,52,0.00,,,0.00,,2013-06-30 01:01:00,
2013-06-29 20:11:00,74.0,56.0,29.83,NW,324,2.0,6.0,53,0.00,,,0.00,,2013-06-30 01:11:00,
2013-06-29 20:22:00,74.0,56.0,29.83,NW,324,2.0,6.0,53,0.00,,,0.00,,2013-06-30 01:22:00,
2013-06-29 20:33:00,73.0,55.0,29.83,NW,321,2.0,7.0,54,0.00,,,0.00,,2013-06-30 01:33:00,
2013-06-29 20:44:00,73.0,56.0,29.83,NW,305,3.0,8.0,55,0.00,,,0.00,,2013-06-30 01:44:00,
2013-06-29 20:53:00,73.0,56.0,29.83,NW,305,3.0,8.0,55,0.00,,,0.00,,2013-06-30 01:53:00,
2013-06-29 21:02:00,72.0,55.0,29.84,NW,320,3.0,7.0,56,0.00,,,0.00,,2013-06-30 02:02:00,
2013-06-29 21:11:00,71.0,56.0,29.84,NW,315,0.0,6.0,59,0.00,,,0.00,,2013-06-30 02:11:00,
2013-06-29 21:23:00,71.0,56.0,29.84,NW,315,0.0,6.0,59,0.00,,,0.00,,2013-06-30 02:23:00,
2013-06-29 21:33:00,70.0,56.0,29.84,NW,315,0.0,0.0,62,0.00,,,0.00,,2013-06-30 02:33:00,
2013-06-29 21:43:00,70.0,57.0,29.85,WNW,298,0.0,3.0,64,0.00,,,0.00,,2013-06-30 02:43:00,
2013-06-29 21:53:00,70.0,57.0,29.85,WNW,298,0.0,3.0,64,0.00,,,0.00,,2013-06-30 02:53:00,
2013-06-29 22:01:00,69.0,56.0,29.85,NW,305,0.0,3.0,64,0.00,,,0.00,,2013-06-30 03:01:00,
2013-06-29 22:12:00,69.0,56.0,29.85,NW,310,0.0,5.0,64,0.00,,,0.00,,2013-06-30 03:12:00,
2013-06-29 22:23:00,69.0,56.0,29.85,NW,310,0.0,5.0,64,0.00,,,0.00,,2013-06-30 03:23:00,
2013-06-29 22:33:00,69.0,57.0,29.86,NW,320,2.0,6.0,66,0.00,,,0.00,,2013-06-30 03:33:00,
2013-06-29 22:43:00,68.0,57.0,29.86,NW,321,0.0,4.0,67,0.00,,,0.00,,2013-06-30 03:43:00,
2013-06-29 22:53:00,68.0,57.0,29.86,NW,321,0.0,4.0,67,0.00,,,0.00,,2013-06-30 03:53:00,
2013-06-29 23:01:00,67.0,57.0,29.87,NW,321,0.0,0.0,70,0.00,,,0.00,,2013-06-30 04:01:00,
2013-06-29 23:12:00,67.0,57.0,29.88,NNW,333,2.0,4.0,70,0.00,,,0.00,,2013-06-30 04:12:00,
2013-06-29 23:22:00,67.0,57.0,29.88,NNW,333,2.0,4.0,70,0.00,,,0.00,,2013-06-30 04:22:00,
2013-06-29 23:33:00,68.0,57.0,29.88,NNW,333,0.0,0.0,69,0.00,,,0.00,,2013-06-30 04:33:00,
2013-06-29 23:43:00,68.0,57.0,29.88,NNW,333,0.0,0.0,69,0.00,,,0.00,,2013-06-30 04:43:00,
2013-06-29 23:53:00,68.0,57.0,29.88,NNW,333,0.0,0.0,69,0.00,,,0.00,,2013-06-30 04:53:00,